Miami, FL

7:58 PM EST on February 05, 2016 (GMT -0500)
Kendall-Tamiami Executive | | Change Station
CLOSE
Current Station
Airport
Location: Kendall,
Elevation: 10 ft
Nearby Weather Stations

Elev 10 ft 25.64 °N, 80.43 °W | Updated 5 minutes ago

Overcast
Overcast
65 °F
Feels Like 65 °F
N
10
Wind Variable Wind from North

Today
High -- | Low -- °F
--% Chance of Precip.
Yesterday
High -- | Low -- °F
Precip. -- in
Pressure 30.16 in
Visibility 10.0 miles
Clouds Scattered Clouds 2900 ft
Overcast 4300 ft
Dew Point 54 °F
Humidity 68%
Rainfall 0.32 in
Snow Depth Not available.
7:03 AM 6:08 PM
Waning Crescent, 8% visible
METAR KTMB 060053Z 01009KT 10SM SCT029 OVC043 18/12 A3016 RMK AO2 SLP211 T01830122
Pressure 30.16 in
Visibility 10.0 miles
Clouds Scattered Clouds 2900 ft
Overcast 4300 ft
Dew Point 54 °F
Humidity 68%
Rainfall 0.32 in
Snow Depth Not available.
7:03 AM 6:08 PM
Waning Crescent, 8% visible
METAR KTMB 060053Z 01009KT 10SM SCT029 OVC043 18/12 A3016 RMK AO2 SLP211 T01830122

10-Day Weather Forecast

Almanac

Astronomy

Feb. 05, 2016 Rise Set
Actual Time
Civil Twilight
Nautical Twilight
Astronomical Twilight
Moon
Length of Visible Light
Length of Day
Tomorrow will be .
, % of the Moon is Illuminated

Today's Extremes

State Highs State Lows

Community

WunderPhotos

Upload Photos

1,890,900 photos uploaded!

WunderBlog® & News

Nearby

Air Quality

  Air Quality AQ Index Pollutant
Not available.

Snow Depth

Station Depth Elevation

Earthquake Activity

City Distance Mag. Time & Date
Minimum magnitude displayed is 2.5.

Coastal Water Temperatures

Place Temperature

Stations

Nearby Weather Stations

Station Location Temp. Windchill Dew Point Humidity Wind Precip. Elev Updated Type
                   

Watches & Warnings

There are currently no watches in effect.